sensor_id;sensor_type;location;lat;lon;timestamp;P1;durP1;ratioP1;P2;durP2;ratioP2
14599;SDS011;7386;45.586;12.854;2022-07-12T00:00:12;3.92;;;2.38;;
14599;SDS011;7386;45.586;12.854;2022-07-12T00:02:41;3.00;;;2.50;;
14599;SDS011;7386;45.586;12.854;2022-07-12T00:05:11;4.10;;;2.65;;
14599;SDS011;7386;45.586;12.854;2022-07-12T00:07:40;3.30;;;2.78;;
14599;SDS011;7386;45.586;12.854;2022-07-12T00:10:08;6.18;;;2.75;;
14599;SDS011;7386;45.586;12.854;2022-07-12T00:12:36;5.15;;;2.80;;
14599;SDS011;7386;45.586;12.854;2022-07-12T00:15:06;6.20;;;3.00;;
14599;SDS011;7386;45.586;12.854;2022-07-12T00:17:36;3.25;;;2.63;;
14599;SDS011;7386;45.586;12.854;2022-07-12T00:20:05;3.22;;;2.60;;
14599;SDS011;7386;45.586;12.854;2022-07-12T00:22:36;4.18;;;2.65;;
14599;SDS011;7386;45.586;12.854;2022-07-12T00:25:05;4.85;;;2.55;;
14599;SDS011;7386;45.586;12.854;2022-07-12T00:27:33;3.80;;;2.55;;
14599;SDS011;7386;45.586;12.854;2022-07-12T00:30:03;3.65;;;2.60;;
14599;SDS011;7386;45.586;12.854;2022-07-12T00:32:31;4.90;;;2.75;;
14599;SDS011;7386;45.586;12.854;2022-07-12T00:35:00;5.75;;;2.55;;
14599;SDS011;7386;45.586;12.854;2022-07-12T00:37:29;4.97;;;2.83;;
14599;SDS011;7386;45.586;12.854;2022-07-12T00:39:59;2.92;;;2.47;;
14599;SDS011;7386;45.586;12.854;2022-07-12T00:42:27;2.85;;;2.50;;
14599;SDS011;7386;45.586;12.854;2022-07-12T00:44:56;5.10;;;3.10;;
14599;SDS011;7386;45.586;12.854;2022-07-12T00:47:28;6.97;;;2.65;;
14599;SDS011;7386;45.586;12.854;2022-07-12T00:50:04;4.28;;;2.90;;
14599;SDS011;7386;45.586;12.854;2022-07-12T00:52:32;3.13;;;2.60;;
14599;SDS011;7386;45.586;12.854;2022-07-12T00:55:03;4.40;;;2.50;;
14599;SDS011;7386;45.586;12.854;2022-07-12T00:57:32;4.45;;;2.70;;
14599;SDS011;7386;45.586;12.854;2022-07-12T01:00:00;5.30;;;2.78;;
14599;SDS011;7386;45.586;12.854;2022-07-12T01:02:29;4.57;;;2.90;;
14599;SDS011;7386;45.586;12.854;2022-07-12T01:04:58;4.85;;;2.40;;
14599;SDS011;7386;45.586;12.854;2022-07-12T01:07:26;3.63;;;2.72;;
14599;SDS011;7386;45.586;12.854;2022-07-12T01:09:55;5.13;;;2.67;;
14599;SDS011;7386;45.586;12.854;2022-07-12T01:12:25;3.00;;;2.40;;
14599;SDS011;7386;45.586;12.854;2022-07-12T01:14:53;10.60;;;2.80;;
14599;SDS011;7386;45.586;12.854;2022-07-12T01:17:24;2.95;;;2.50;;
14599;SDS011;7386;45.586;12.854;2022-07-12T01:19:53;4.93;;;2.55;;
14599;SDS011;7386;45.586;12.854;2022-07-12T01:22:25;5.30;;;2.78;;
14599;SDS011;7386;45.586;12.854;2022-07-12T01:24:55;3.45;;;2.38;;
14599;SDS011;7386;45.586;12.854;2022-07-12T01:27:24;2.90;;;2.50;;
14599;SDS011;7386;45.586;12.854;2022-07-12T01:29:52;3.17;;;2.80;;
14599;SDS011;7386;45.586;12.854;2022-07-12T01:32:21;2.95;;;2.30;;
14599;SDS011;7386;45.586;12.854;2022-07-12T01:34:54;4.00;;;2.63;;
14599;SDS011;7386;45.586;12.854;2022-07-12T01:37:24;3.45;;;2.90;;
14599;SDS011;7386;45.586;12.854;2022-07-12T01:39:55;3.45;;;2.70;;
14599;SDS011;7386;45.586;12.854;2022-07-12T01:42:24;3.17;;;2.60;;
14599;SDS011;7386;45.586;12.854;2022-07-12T01:44:54;3.40;;;2.60;;
14599;SDS011;7386;45.586;12.854;2022-07-12T01:47:23;3.80;;;2.90;;
14599;SDS011;7386;45.586;12.854;2022-07-12T01:49:52;5.22;;;2.95;;
14599;SDS011;7386;45.586;12.854;2022-07-12T01:52:20;2.85;;;2.60;;
14599;SDS011;7386;45.586;12.854;2022-07-12T01:54:49;2.85;;;2.53;;
14599;SDS011;7386;45.586;12.854;2022-07-12T01:57:20;5.25;;;3.05;;
14599;SDS011;7386;45.586;12.854;2022-07-12T01:59:49;3.35;;;2.70;;
14599;SDS011;7386;45.586;12.854;2022-07-12T02:02:18;5.05;;;2.97;;
14599;SDS011;7386;45.586;12.854;2022-07-12T02:04:47;6.93;;;2.75;;
14599;SDS011;7386;45.586;12.854;2022-07-12T02:07:16;4.80;;;2.80;;
14599;SDS011;7386;45.586;12.854;2022-07-12T02:09:44;4.43;;;3.00;;
14599;SDS011;7386;45.586;12.854;2022-07-12T02:12:13;4.10;;;2.83;;
14599;SDS011;7386;45.586;12.854;2022-07-12T02:14:43;3.90;;;2.80;;
14599;SDS011;7386;45.586;12.854;2022-07-12T02:17:11;3.90;;;2.70;;
14599;SDS011;7386;45.586;12.854;2022-07-12T02:19:41;4.53;;;2.80;;
14599;SDS011;7386;45.586;12.854;2022-07-12T02:22:09;3.22;;;2.80;;
14599;SDS011;7386;45.586;12.854;2022-07-12T02:24:38;5.68;;;3.08;;
14599;SDS011;7386;45.586;12.854;2022-07-12T02:27:06;5.78;;;2.88;;
14599;SDS011;7386;45.586;12.854;2022-07-12T02:29:35;6.63;;;2.80;;
14599;SDS011;7386;45.586;12.854;2022-07-12T02:32:05;3.70;;;3.00;;
14599;SDS011;7386;45.586;12.854;2022-07-12T02:34:34;6.47;;;3.08;;
14599;SDS011;7386;45.586;12.854;2022-07-12T02:37:02;5.10;;;3.00;;
14599;SDS011;7386;45.586;12.854;2022-07-12T02:39:31;4.35;;;2.65;;
14599;SDS011;7386;45.586;12.854;2022-07-12T02:41:59;4.47;;;2.60;;
14599;SDS011;7386;45.586;12.854;2022-07-12T02:44:28;4.00;;;2.40;;
14599;SDS011;7386;45.586;12.854;2022-07-12T02:46:56;5.22;;;2.65;;
14599;SDS011;7386;45.586;12.854;2022-07-12T02:49:27;2.78;;;2.47;;
14599;SDS011;7386;45.586;12.854;2022-07-12T02:51:55;3.58;;;2.90;;
14599;SDS011;7386;45.586;12.854;2022-07-12T02:54:24;4.30;;;2.88;;
14599;SDS011;7386;45.586;12.854;2022-07-12T02:56:52;2.78;;;2.58;;
14599;SDS011;7386;45.586;12.854;2022-07-12T02:59:21;3.10;;;2.70;;
14599;SDS011;7386;45.586;12.854;2022-07-12T03:01:50;3.17;;;2.60;;
14599;SDS011;7386;45.586;12.854;2022-07-12T03:04:19;4.00;;;2.60;;
14599;SDS011;7386;45.586;12.854;2022-07-12T03:06:49;3.67;;;2.90;;
14599;SDS011;7386;45.586;12.854;2022-07-12T03:09:17;2.92;;;2.50;;
14599;SDS011;7386;45.586;12.854;2022-07-12T03:11:46;6.75;;;2.80;;
14599;SDS011;7386;45.586;12.854;2022-07-12T03:14:14;4.00;;;2.42;;
14599;SDS011;7386;45.586;12.854;2022-07-12T03:16:43;3.85;;;2.55;;
14599;SDS011;7386;45.586;12.854;2022-07-12T03:19:12;2.80;;;2.50;;
14599;SDS011;7386;45.586;12.854;2022-07-12T03:21:40;4.15;;;2.50;;
14599;SDS011;7386;45.586;12.854;2022-07-12T03:24:10;4.20;;;3.00;;
14599;SDS011;7386;45.586;12.854;2022-07-12T03:26:39;4.28;;;3.15;;
14599;SDS011;7386;45.586;12.854;2022-07-12T03:29:07;4.18;;;2.90;;
14599;SDS011;7386;45.586;12.854;2022-07-12T03:31:36;4.57;;;2.90;;
14599;SDS011;7386;45.586;12.854;2022-07-12T03:34:04;4.18;;;3.03;;
14599;SDS011;7386;45.586;12.854;2022-07-12T03:36:32;6.38;;;3.15;;
14599;SDS011;7386;45.586;12.854;2022-07-12T03:39:01;6.68;;;3.00;;
14599;SDS011;7386;45.586;12.854;2022-07-12T03:41:31;4.85;;;2.92;;
14599;SDS011;7386;45.586;12.854;2022-07-12T03:44:00;3.33;;;3.03;;
14599;SDS011;7386;45.586;12.854;2022-07-12T03:46:28;6.05;;;3.60;;
14599;SDS011;7386;45.586;12.854;2022-07-12T03:48:59;5.93;;;3.47;;
14599;SDS011;7386;45.586;12.854;2022-07-12T03:51:27;3.65;;;3.33;;
14599;SDS011;7386;45.586;12.854;2022-07-12T03:53:56;5.75;;;3.33;;
14599;SDS011;7386;45.586;12.854;2022-07-12T03:56:24;5.55;;;3.47;;
14599;SDS011;7386;45.586;12.854;2022-07-12T03:59:11;4.63;;;3.28;;
14599;SDS011;7386;45.586;12.854;2022-07-12T04:01:39;6.22;;;3.45;;
14599;SDS011;7386;45.586;12.854;2022-07-12T04:04:07;4.40;;;3.40;;
14599;SDS011;7386;45.586;12.854;2022-07-12T04:06:36;4.88;;;3.35;;
14599;SDS011;7386;45.586;12.854;2022-07-12T04:09:05;5.57;;;3.40;;
14599;SDS011;7386;45.586;12.854;2022-07-12T04:11:33;8.65;;;3.33;;
14599;SDS011;7386;45.586;12.854;2022-07-12T04:14:01;7.50;;;3.60;;
14599;SDS011;7386;45.586;12.854;2022-07-12T04:16:31;4.40;;;3.38;;
14599;SDS011;7386;45.586;12.854;2022-07-12T04:19:00;4.50;;;3.33;;
14599;SDS011;7386;45.586;12.854;2022-07-12T04:21:28;8.05;;;3.70;;
14599;SDS011;7386;45.586;12.854;2022-07-12T04:23:56;5.45;;;3.42;;
14599;SDS011;7386;45.586;12.854;2022-07-12T04:26:24;4.35;;;3.30;;
14599;SDS011;7386;45.586;12.854;2022-07-12T04:28:53;7.60;;;3.30;;
14599;SDS011;7386;45.586;12.854;2022-07-12T04:31:25;8.95;;;3.42;;
14599;SDS011;7386;45.586;12.854;2022-07-12T04:33:55;4.57;;;3.22;;
14599;SDS011;7386;45.586;12.854;2022-07-12T04:36:23;3.95;;;3.10;;
14599;SDS011;7386;45.586;12.854;2022-07-12T04:38:52;5.72;;;3.00;;
14599;SDS011;7386;45.586;12.854;2022-07-12T04:41:20;5.18;;;3.05;;
14599;SDS011;7386;45.586;12.854;2022-07-12T04:43:49;4.68;;;3.03;;
14599;SDS011;7386;45.586;12.854;2022-07-12T04:46:17;7.80;;;3.10;;
14599;SDS011;7386;45.586;12.854;2022-07-12T04:48:46;5.40;;;2.80;;
14599;SDS011;7386;45.586;12.854;2022-07-12T04:51:16;2.65;;;2.45;;
14599;SDS011;7386;45.586;12.854;2022-07-12T04:53:44;3.58;;;2.75;;
14599;SDS011;7386;45.586;12.854;2022-07-12T04:56:12;3.00;;;2.47;;
14599;SDS011;7386;45.586;12.854;2022-07-12T04:58:41;2.65;;;2.45;;
14599;SDS011;7386;45.586;12.854;2022-07-12T05:01:09;5.45;;;3.03;;
14599;SDS011;7386;45.586;12.854;2022-07-12T05:03:37;4.03;;;2.88;;
14599;SDS011;7386;45.586;12.854;2022-07-12T05:06:06;4.63;;;2.78;;
14599;SDS011;7386;45.586;12.854;2022-07-12T05:08:36;4.68;;;2.80;;
14599;SDS011;7386;45.586;12.854;2022-07-12T05:11:06;5.47;;;2.95;;
14599;SDS011;7386;45.586;12.854;2022-07-12T05:13:35;6.63;;;2.90;;
14599;SDS011;7386;45.586;12.854;2022-07-12T05:16:06;7.47;;;2.90;;
14599;SDS011;7386;45.586;12.854;2022-07-12T05:18:35;10.48;;;3.03;;
14599;SDS011;7386;45.586;12.854;2022-07-12T05:21:04;3.83;;;2.60;;
14599;SDS011;7386;45.586;12.854;2022-07-12T05:23:32;5.28;;;2.90;;
14599;SDS011;7386;45.586;12.854;2022-07-12T05:26:04;4.88;;;2.58;;
14599;SDS011;7386;45.586;12.854;2022-07-12T05:28:39;5.78;;;2.85;;
14599;SDS011;7386;45.586;12.854;2022-07-12T05:31:09;4.93;;;2.75;;
14599;SDS011;7386;45.586;12.854;2022-07-12T05:33:38;6.72;;;2.70;;
14599;SDS011;7386;45.586;12.854;2022-07-12T05:36:07;5.22;;;2.50;;
14599;SDS011;7386;45.586;12.854;2022-07-12T05:38:35;4.07;;;2.75;;
14599;SDS011;7386;45.586;12.854;2022-07-12T05:41:05;7.95;;;2.80;;
14599;SDS011;7386;45.586;12.854;2022-07-12T05:43:33;10.63;;;2.75;;
14599;SDS011;7386;45.586;12.854;2022-07-12T05:46:04;6.93;;;2.75;;
14599;SDS011;7386;45.586;12.854;2022-07-12T05:48:36;9.18;;;2.70;;
14599;SDS011;7386;45.586;12.854;2022-07-12T05:51:04;5.85;;;2.30;;
14599;SDS011;7386;45.586;12.854;2022-07-12T05:53:58;5.45;;;2.83;;
14599;SDS011;7386;45.586;12.854;2022-07-12T05:56:28;5.70;;;2.70;;
14599;SDS011;7386;45.586;12.854;2022-07-12T05:58:56;3.63;;;2.35;;
14599;SDS011;7386;45.586;12.854;2022-07-12T06:01:25;3.00;;;2.40;;
14599;SDS011;7386;45.586;12.854;2022-07-12T06:03:53;9.68;;;2.72;;
14599;SDS011;7386;45.586;12.854;2022-07-12T06:06:21;6.82;;;2.75;;
14599;SDS011;7386;45.586;12.854;2022-07-12T06:08:50;7.55;;;2.90;;
14599;SDS011;7386;45.586;12.854;2022-07-12T06:11:20;4.82;;;2.50;;
14599;SDS011;7386;45.586;12.854;2022-07-12T06:13:49;7.57;;;2.65;;
14599;SDS011;7386;45.586;12.854;2022-07-12T06:16:18;4.45;;;2.50;;
14599;SDS011;7386;45.586;12.854;2022-07-12T06:18:46;4.82;;;2.60;;
14599;SDS011;7386;45.586;12.854;2022-07-12T06:21:14;4.40;;;2.65;;
14599;SDS011;7386;45.586;12.854;2022-07-12T06:23:43;8.38;;;2.60;;
14599;SDS011;7386;45.586;12.854;2022-07-12T06:26:11;3.72;;;2.47;;
14599;SDS011;7386;45.586;12.854;2022-07-12T06:28:39;4.03;;;2.40;;
14599;SDS011;7386;45.586;12.854;2022-07-12T06:31:09;5.28;;;2.30;;
14599;SDS011;7386;45.586;12.854;2022-07-12T06:33:38;4.35;;;2.47;;
14599;SDS011;7386;45.586;12.854;2022-07-12T06:36:06;3.88;;;2.38;;
14599;SDS011;7386;45.586;12.854;2022-07-12T06:38:34;4.22;;;2.40;;
14599;SDS011;7386;45.586;12.854;2022-07-12T06:41:12;4.95;;;2.67;;
14599;SDS011;7386;45.586;12.854;2022-07-12T06:43:43;4.65;;;2.28;;
14599;SDS011;7386;45.586;12.854;2022-07-12T06:46:13;8.32;;;2.38;;
14599;SDS011;7386;45.586;12.854;2022-07-12T06:48:42;6.90;;;2.60;;
14599;SDS011;7386;45.586;12.854;2022-07-12T06:51:10;4.47;;;2.28;;
14599;SDS011;7386;45.586;12.854;2022-07-12T06:53:38;5.75;;;2.15;;
14599;SDS011;7386;45.586;12.854;2022-07-12T06:56:07;4.53;;;2.10;;
14599;SDS011;7386;45.586;12.854;2022-07-12T06:58:35;3.50;;;2.03;;
14599;SDS011;7386;45.586;12.854;2022-07-12T07:01:04;8.27;;;2.30;;
14599;SDS011;7386;45.586;12.854;2022-07-12T07:03:34;3.70;;;2.10;;
14599;SDS011;7386;45.586;12.854;2022-07-12T07:06:02;5.78;;;2.05;;
14599;SDS011;7386;45.586;12.854;2022-07-12T07:08:30;6.93;;;2.40;;
14599;SDS011;7386;45.586;12.854;2022-07-12T07:11:02;4.53;;;1.80;;
14599;SDS011;7386;45.586;12.854;2022-07-12T07:13:30;4.07;;;2.65;;
14599;SDS011;7386;45.586;12.854;2022-07-12T07:16:08;5.25;;;2.30;;
14599;SDS011;7386;45.586;12.854;2022-07-12T07:18:38;4.80;;;2.25;;
14599;SDS011;7386;45.586;12.854;2022-07-12T07:21:06;7.18;;;2.22;;
14599;SDS011;7386;45.586;12.854;2022-07-12T07:23:34;3.63;;;2.13;;
14599;SDS011;7386;45.586;12.854;2022-07-12T07:26:03;4.85;;;2.28;;
14599;SDS011;7386;45.586;12.854;2022-07-12T07:28:31;4.43;;;2.10;;
14599;SDS011;7386;45.586;12.854;2022-07-12T07:31:20;5.70;;;2.30;;
14599;SDS011;7386;45.586;12.854;2022-07-12T07:33:49;5.75;;;2.63;;
14599;SDS011;7386;45.586;12.854;2022-07-12T07:36:17;3.03;;;2.10;;
14599;SDS011;7386;45.586;12.854;2022-07-12T07:38:46;6.65;;;2.50;;
14599;SDS011;7386;45.586;12.854;2022-07-12T07:41:14;3.25;;;2.10;;
14599;SDS011;7386;45.586;12.854;2022-07-12T07:43:42;4.55;;;2.10;;
14599;SDS011;7386;45.586;12.854;2022-07-12T07:46:10;5.05;;;2.30;;
14599;SDS011;7386;45.586;12.854;2022-07-12T07:48:40;3.75;;;2.10;;
14599;SDS011;7386;45.586;12.854;2022-07-12T07:51:10;6.93;;;2.10;;
14599;SDS011;7386;45.586;12.854;2022-07-12T07:53:38;4.88;;;2.17;;
14599;SDS011;7386;45.586;12.854;2022-07-12T07:56:07;3.65;;;2.45;;
14599;SDS011;7386;45.586;12.854;2022-07-12T07:58:35;4.20;;;2.17;;
14599;SDS011;7386;45.586;12.854;2022-07-12T08:01:05;6.63;;;2.20;;
14599;SDS011;7386;45.586;12.854;2022-07-12T08:03:34;4.95;;;2.53;;
14599;SDS011;7386;45.586;12.854;2022-07-12T08:06:04;4.82;;;2.40;;
14599;SDS011;7386;45.586;12.854;2022-07-12T08:08:34;3.55;;;2.45;;
14599;SDS011;7386;45.586;12.854;2022-07-12T08:11:22;5.55;;;2.35;;
14599;SDS011;7386;45.586;12.854;2022-07-12T08:13:50;6.05;;;2.30;;
14599;SDS011;7386;45.586;12.854;2022-07-12T08:16:19;6.43;;;2.30;;
14599;SDS011;7386;45.586;12.854;2022-07-12T08:18:47;3.83;;;2.30;;
14599;SDS011;7386;45.586;12.854;2022-07-12T08:21:16;6.50;;;2.50;;
14599;SDS011;7386;45.586;12.854;2022-07-12T08:23:46;4.80;;;2.33;;
14599;SDS011;7386;45.586;12.854;2022-07-12T08:26:14;6.32;;;2.47;;
14599;SDS011;7386;45.586;12.854;2022-07-12T08:28:43;3.63;;;2.70;;
14599;SDS011;7386;45.586;12.854;2022-07-12T08:31:11;6.05;;;2.80;;
14599;SDS011;7386;45.586;12.854;2022-07-12T08:33:40;3.08;;;2.63;;
14599;SDS011;7386;45.586;12.854;2022-07-12T08:36:09;5.32;;;2.80;;
14599;SDS011;7386;45.586;12.854;2022-07-12T08:38:38;3.50;;;2.63;;
14599;SDS011;7386;45.586;12.854;2022-07-12T08:41:12;2.92;;;2.63;;
14599;SDS011;7386;45.586;12.854;2022-07-12T08:43:41;5.85;;;3.10;;
14599;SDS011;7386;45.586;12.854;2022-07-12T08:46:10;4.63;;;3.22;;
14599;SDS011;7386;45.586;12.854;2022-07-12T08:48:40;4.88;;;3.15;;
14599;SDS011;7386;45.586;12.854;2022-07-12T08:51:09;5.63;;;2.78;;
14599;SDS011;7386;45.586;12.854;2022-07-12T08:53:38;2.88;;;2.67;;
14599;SDS011;7386;45.586;12.854;2022-07-12T08:56:07;5.68;;;2.90;;
14599;SDS011;7386;45.586;12.854;2022-07-12T08:58:38;5.25;;;3.17;;
14599;SDS011;7386;45.586;12.854;2022-07-12T09:01:07;7.75;;;2.72;;
14599;SDS011;7386;45.586;12.854;2022-07-12T09:03:35;10.38;;;2.97;;
14599;SDS011;7386;45.586;12.854;2022-07-12T09:06:04;6.97;;;2.78;;
14599;SDS011;7386;45.586;12.854;2022-07-12T09:08:33;6.13;;;3.30;;
14599;SDS011;7386;45.586;12.854;2022-07-12T09:11:03;6.45;;;3.15;;
14599;SDS011;7386;45.586;12.854;2022-07-12T09:13:46;5.53;;;3.08;;
14599;SDS011;7386;45.586;12.854;2022-07-12T09:16:17;3.92;;;3.13;;
14599;SDS011;7386;45.586;12.854;2022-07-12T09:18:46;4.60;;;2.88;;
14599;SDS011;7386;45.586;12.854;2022-07-12T09:21:24;5.35;;;2.83;;
14599;SDS011;7386;45.586;12.854;2022-07-12T09:23:54;7.63;;;3.20;;
14599;SDS011;7386;45.586;12.854;2022-07-12T09:26:29;7.32;;;3.10;;
14599;SDS011;7386;45.586;12.854;2022-07-12T09:29:05;9.70;;;3.17;;
14599;SDS011;7386;45.586;12.854;2022-07-12T09:31:43;5.72;;;3.13;;
14599;SDS011;7386;45.586;12.854;2022-07-12T09:34:29;9.38;;;3.38;;
14599;SDS011;7386;45.586;12.854;2022-07-12T09:37:15;5.07;;;3.10;;
14599;SDS011;7386;45.586;12.854;2022-07-12T09:39:44;4.00;;;2.47;;
14599;SDS011;7386;45.586;12.854;2022-07-12T09:42:15;4.40;;;2.90;;
14599;SDS011;7386;45.586;12.854;2022-07-12T09:44:45;6.78;;;3.25;;
14599;SDS011;7386;45.586;12.854;2022-07-12T09:47:16;11.82;;;3.20;;
14599;SDS011;7386;45.586;12.854;2022-07-12T09:49:45;9.13;;;4.68;;
14599;SDS011;7386;45.586;12.854;2022-07-12T09:52:15;6.75;;;4.18;;
14599;SDS011;7386;45.586;12.854;2022-07-12T09:54:49;4.38;;;3.40;;
14599;SDS011;7386;45.586;12.854;2022-07-12T09:57:20;5.05;;;2.90;;
14599;SDS011;7386;45.586;12.854;2022-07-12T09:59:50;7.00;;;2.80;;
14599;SDS011;7386;45.586;12.854;2022-07-12T10:02:21;9.23;;;2.75;;
14599;SDS011;7386;45.586;12.854;2022-07-12T10:04:51;5.68;;;2.80;;
14599;SDS011;7386;45.586;12.854;2022-07-12T10:07:21;5.00;;;3.03;;
14599;SDS011;7386;45.586;12.854;2022-07-12T10:09:50;5.82;;;2.80;;
14599;SDS011;7386;45.586;12.854;2022-07-12T10:12:20;5.90;;;2.90;;
14599;SDS011;7386;45.586;12.854;2022-07-12T10:14:51;6.03;;;2.70;;
14599;SDS011;7386;45.586;12.854;2022-07-12T10:17:21;7.13;;;2.60;;
14599;SDS011;7386;45.586;12.854;2022-07-12T10:19:50;7.28;;;2.72;;
14599;SDS011;7386;45.586;12.854;2022-07-12T10:22:38;7.25;;;2.60;;
14599;SDS011;7386;45.586;12.854;2022-07-12T10:25:20;5.07;;;2.33;;
14599;SDS011;7386;45.586;12.854;2022-07-12T10:27:56;4.35;;;2.25;;
14599;SDS011;7386;45.586;12.854;2022-07-12T10:30:27;4.70;;;2.30;;
14599;SDS011;7386;45.586;12.854;2022-07-12T10:32:56;5.28;;;2.70;;
14599;SDS011;7386;45.586;12.854;2022-07-12T10:35:26;6.35;;;2.50;;
14599;SDS011;7386;45.586;12.854;2022-07-12T10:40:56;4.45;;;2.50;;
14599;SDS011;7386;45.586;12.854;2022-07-12T10:43:25;7.00;;;2.60;;
14599;SDS011;7386;45.586;12.854;2022-07-12T10:46:20;3.22;;;2.25;;
14599;SDS011;7386;45.586;12.854;2022-07-12T10:48:50;5.38;;;2.55;;
14599;SDS011;7386;45.586;12.854;2022-07-12T10:51:26;4.55;;;2.45;;
14599;SDS011;7386;45.586;12.854;2022-07-12T10:53:54;6.18;;;2.35;;
14599;SDS011;7386;45.586;12.854;2022-07-12T10:56:54;4.07;;;2.25;;
14599;SDS011;7386;45.586;12.854;2022-07-12T10:59:23;7.35;;;2.55;;
14599;SDS011;7386;45.586;12.854;2022-07-12T11:01:56;4.28;;;2.58;;
14599;SDS011;7386;45.586;12.854;2022-07-12T11:04:41;6.68;;;2.60;;
14599;SDS011;7386;45.586;12.854;2022-07-12T11:07:16;4.93;;;2.50;;
14599;SDS011;7386;45.586;12.854;2022-07-12T11:09:45;6.63;;;2.47;;
14599;SDS011;7386;45.586;12.854;2022-07-12T11:12:14;7.72;;;2.58;;
14599;SDS011;7386;45.586;12.854;2022-07-12T11:14:44;4.43;;;3.10;;
14599;SDS011;7386;45.586;12.854;2022-07-12T11:17:15;5.68;;;2.83;;
14599;SDS011;7386;45.586;12.854;2022-07-12T11:19:44;6.93;;;2.83;;
14599;SDS011;7386;45.586;12.854;2022-07-12T11:22:16;4.20;;;2.45;;
14599;SDS011;7386;45.586;12.854;2022-07-12T11:24:45;6.65;;;2.60;;
14599;SDS011;7386;45.586;12.854;2022-07-12T11:27:13;3.25;;;2.72;;
14599;SDS011;7386;45.586;12.854;2022-07-12T11:29:55;8.77;;;2.40;;
14599;SDS011;7386;45.586;12.854;2022-07-12T11:32:34;4.25;;;2.20;;
14599;SDS011;7386;45.586;12.854;2022-07-12T11:35:04;3.65;;;2.33;;
14599;SDS011;7386;45.586;12.854;2022-07-12T11:37:33;6.80;;;3.60;;
14599;SDS011;7386;45.586;12.854;2022-07-12T11:40:01;5.82;;;3.10;;
14599;SDS011;7386;45.586;12.854;2022-07-12T11:42:30;5.88;;;2.75;;
14599;SDS011;7386;45.586;12.854;2022-07-12T11:45:04;4.10;;;2.70;;
14599;SDS011;7386;45.586;12.854;2022-07-12T11:47:39;4.22;;;2.33;;
14599;SDS011;7386;45.586;12.854;2022-07-12T11:50:08;3.08;;;2.50;;
14599;SDS011;7386;45.586;12.854;2022-07-12T11:52:36;4.32;;;2.60;;
14599;SDS011;7386;45.586;12.854;2022-07-12T11:55:06;3.15;;;2.50;;
14599;SDS011;7386;45.586;12.854;2022-07-12T11:57:35;3.25;;;2.40;;
14599;SDS011;7386;45.586;12.854;2022-07-12T12:00:16;4.72;;;2.45;;
14599;SDS011;7386;45.586;12.854;2022-07-12T12:02:48;3.80;;;2.65;;
14599;SDS011;7386;45.586;12.854;2022-07-12T12:05:20;4.45;;;2.45;;
14599;SDS011;7386;45.586;12.854;2022-07-12T12:07:49;3.38;;;2.45;;
14599;SDS011;7386;45.586;12.854;2022-07-12T12:10:21;6.65;;;2.72;;
14599;SDS011;7386;45.586;12.854;2022-07-12T12:12:50;3.83;;;2.30;;
14599;SDS011;7386;45.586;12.854;2022-07-12T12:15:22;4.90;;;2.20;;
14599;SDS011;7386;45.586;12.854;2022-07-12T12:17:54;2.78;;;2.13;;
14599;SDS011;7386;45.586;12.854;2022-07-12T12:20:26;4.07;;;2.40;;
14599;SDS011;7386;45.586;12.854;2022-07-12T12:22:55;3.53;;;2.50;;
14599;SDS011;7386;45.586;12.854;2022-07-12T12:25:24;3.90;;;2.58;;
14599;SDS011;7386;45.586;12.854;2022-07-12T12:27:54;4.78;;;2.45;;
14599;SDS011;7386;45.586;12.854;2022-07-12T12:30:50;6.78;;;2.50;;
14599;SDS011;7386;45.586;12.854;2022-07-12T12:33:36;6.43;;;2.95;;
14599;SDS011;7386;45.586;12.854;2022-07-12T12:36:14;2.33;;;2.13;;
14599;SDS011;7386;45.586;12.854;2022-07-12T12:38:43;6.38;;;2.53;;
14599;SDS011;7386;45.586;12.854;2022-07-12T12:41:12;5.90;;;2.38;;
14599;SDS011;7386;45.586;12.854;2022-07-12T12:43:43;3.55;;;2.47;;
14599;SDS011;7386;45.586;12.854;2022-07-12T12:46:20;4.38;;;2.10;;
14599;SDS011;7386;45.586;12.854;2022-07-12T12:48:50;4.32;;;2.40;;
14599;SDS011;7386;45.586;12.854;2022-07-12T12:51:21;4.70;;;2.58;;
14599;SDS011;7386;45.586;12.854;2022-07-12T12:53:54;9.48;;;2.90;;
14599;SDS011;7386;45.586;12.854;2022-07-12T12:56:23;4.85;;;2.40;;
14599;SDS011;7386;45.586;12.854;2022-07-12T12:58:52;4.50;;;2.15;;
14599;SDS011;7386;45.586;12.854;2022-07-12T13:01:21;4.00;;;2.30;;
14599;SDS011;7386;45.586;12.854;2022-07-12T13:03:51;4.38;;;2.50;;
14599;SDS011;7386;45.586;12.854;2022-07-12T13:06:19;5.55;;;2.75;;
14599;SDS011;7386;45.586;12.854;2022-07-12T13:08:49;8.50;;;2.60;;
14599;SDS011;7386;45.586;12.854;2022-07-12T13:11:17;4.68;;;2.42;;
14599;SDS011;7386;45.586;12.854;2022-07-12T13:13:46;7.45;;;2.50;;
14599;SDS011;7386;45.586;12.854;2022-07-12T13:16:15;4.88;;;2.53;;
14599;SDS011;7386;45.586;12.854;2022-07-12T13:18:44;5.95;;;2.72;;
14599;SDS011;7386;45.586;12.854;2022-07-12T13:21:22;8.00;;;2.30;;
14599;SDS011;7386;45.586;12.854;2022-07-12T13:23:51;3.85;;;2.20;;
14599;SDS011;7386;45.586;12.854;2022-07-12T13:26:22;5.18;;;2.30;;
14599;SDS011;7386;45.586;12.854;2022-07-12T13:28:51;7.20;;;2.30;;
14599;SDS011;7386;45.586;12.854;2022-07-12T13:31:21;7.47;;;2.40;;
14599;SDS011;7386;45.586;12.854;2022-07-12T13:33:51;5.47;;;2.58;;
14599;SDS011;7386;45.586;12.854;2022-07-12T13:36:20;5.18;;;2.35;;
14599;SDS011;7386;45.586;12.854;2022-07-12T13:38:50;6.82;;;2.70;;
14599;SDS011;7386;45.586;12.854;2022-07-12T13:41:19;6.20;;;2.33;;
14599;SDS011;7386;45.586;12.854;2022-07-12T13:43:47;10.00;;;2.80;;
14599;SDS011;7386;45.586;12.854;2022-07-12T13:46:16;3.65;;;2.38;;
14599;SDS011;7386;45.586;12.854;2022-07-12T13:48:45;6.78;;;2.60;;
14599;SDS011;7386;45.586;12.854;2022-07-12T13:51:14;4.22;;;2.30;;
14599;SDS011;7386;45.586;12.854;2022-07-12T13:53:57;6.15;;;2.30;;
14599;SDS011;7386;45.586;12.854;2022-07-12T13:56:26;4.32;;;2.67;;
14599;SDS011;7386;45.586;12.854;2022-07-12T13:59:01;4.63;;;2.60;;
14599;SDS011;7386;45.586;12.854;2022-07-12T14:01:31;4.07;;;2.40;;
14599;SDS011;7386;45.586;12.854;2022-07-12T14:03:59;5.30;;;2.40;;
14599;SDS011;7386;45.586;12.854;2022-07-12T14:06:28;4.13;;;2.15;;
14599;SDS011;7386;45.586;12.854;2022-07-12T14:08:58;8.30;;;2.13;;
14599;SDS011;7386;45.586;12.854;2022-07-12T14:11:27;4.25;;;2.40;;
14599;SDS011;7386;45.586;12.854;2022-07-12T14:13:55;7.30;;;2.60;;
14599;SDS011;7386;45.586;12.854;2022-07-12T14:16:24;2.72;;;2.10;;
14599;SDS011;7386;45.586;12.854;2022-07-12T14:18:54;4.95;;;2.22;;
14599;SDS011;7386;45.586;12.854;2022-07-12T14:21:22;5.22;;;2.45;;
14599;SDS011;7386;45.586;12.854;2022-07-12T14:23:53;4.10;;;2.10;;
14599;SDS011;7386;45.586;12.854;2022-07-12T14:26:23;4.72;;;2.13;;
14599;SDS011;7386;45.586;12.854;2022-07-12T14:28:52;3.67;;;2.00;;
14599;SDS011;7386;45.586;12.854;2022-07-12T14:31:20;8.23;;;2.35;;
14599;SDS011;7386;45.586;12.854;2022-07-12T14:33:49;7.95;;;2.10;;
14599;SDS011;7386;45.586;12.854;2022-07-12T14:36:18;6.72;;;2.17;;
14599;SDS011;7386;45.586;12.854;2022-07-12T14:38:47;11.00;;;2.50;;
14599;SDS011;7386;45.586;12.854;2022-07-12T14:41:19;4.65;;;2.10;;
14599;SDS011;7386;45.586;12.854;2022-07-12T14:43:49;8.88;;;2.20;;
14599;SDS011;7386;45.586;12.854;2022-07-12T14:46:17;8.43;;;2.50;;
14599;SDS011;7386;45.586;12.854;2022-07-12T14:48:46;8.85;;;2.22;;
14599;SDS011;7386;45.586;12.854;2022-07-12T14:51:15;6.53;;;2.40;;
14599;SDS011;7386;45.586;12.854;2022-07-12T14:53:43;6.72;;;2.40;;
14599;SDS011;7386;45.586;12.854;2022-07-12T14:56:14;8.30;;;2.30;;
14599;SDS011;7386;45.586;12.854;2022-07-12T14:58:43;7.72;;;2.20;;
14599;SDS011;7386;45.586;12.854;2022-07-12T15:01:13;5.50;;;2.28;;
14599;SDS011;7386;45.586;12.854;2022-07-12T15:03:41;8.40;;;2.80;;
14599;SDS011;7386;45.586;12.854;2022-07-12T15:06:10;3.90;;;2.55;;
14599;SDS011;7386;45.586;12.854;2022-07-12T15:08:38;6.25;;;2.30;;